Estación Meteorológica Peña el Pijo (Robertgarden) [ 11/20/18 00:55:54 CET ]

Fecha Hora Presion(HPa) Temp (°C) Humedad % Rocio (°C) Viento ( m/s) Direccion Lluvia 1Hora(mm) Lluvia 24H(mm) LLuvia Total(mm)
2018-Nov-16 01:01:48 1008.700 7.9 91 6.5       11.39 118.10
2018-Nov-16 02:02:26 1008.200 7.8 92 6.6       10.87 118.10
2018-Nov-16 03:02:07 1008.600 7.2 92 6.0       10.87 118.10
2018-Nov-16 04:03:47 1008.400 6.9 92 5.7       8.80 118.10
2018-Nov-16 05:02:16 1008.300 7.0 92 5.8       4.14 118.10
2018-Nov-16 06:02:06 1008.100 7.5 92 6.3       2.59 118.10
2018-Nov-16 07:01:52 1008.200 7.8 92 6.6       2.07 118.10
2018-Nov-16 08:01:47 1008.300 7.6 93 6.5       1.55 118.10
2018-Nov-16 09:01:39 1008.800 8.1 93 7.0       1.55 118.10
2018-Nov-16 10:01:43 1008.800 9.6 93 8.5       1.55 118.10
2018-Nov-16 11:01:49 1009.000 10.8 93 9.7       1.55 118.10
2018-Nov-16 12:01:53 1008.600 12.2 92 10.9       1.55 118.10
2018-Nov-16 13:01:41 1008.200 12.9 90 11.3       1.55 118.10
2018-Nov-16 14:01:43 1007.500 13.1 85 10.6       1.03 118.10
2018-Nov-16 15:01:50 1007.100 12.3 85 9.8     0.51 0.51 118.62
2018-Nov-16 16:01:47 1007.000 11.1 87 9.0     1.03 1.55 119.65
2018-Nov-16 17:01:45 1007.400 9.8 88 7.9     2.07 3.62 121.73
2018-Nov-16 18:01:49 1007.700 9.4 89 7.7       3.62 121.73
2018-Nov-16 19:02:03 1008.100 8.9 90 7.4     1.03 4.66 122.76
2018-Nov-16 20:01:46 1008.000 8.8 91 7.4       4.66 122.76
2018-Nov-16 21:01:42 1007.700 8.6 91 7.2     0.51 5.18 123.28
2018-Nov-16 22:01:47 1007.700 8.4 91 7.0     0.51 5.69 123.80
2018-Nov-16 23:01:43 1007.600 8.4 92 7.2     0.51 6.21 124.32

Temperatura Máxima:13°    Temperatura Mínima:
Presión Máxima:1009.000 Hpa    Presión Mínima:1007.000 Hpa


Volver